createdAt,value
2023-05-07T00:02:21.821Z,84.30
2023-05-07T00:04:50.036Z,84.20
2023-05-07T00:07:18.165Z,84.20
2023-05-07T00:09:46.320Z,84.20
2023-05-07T00:12:14.399Z,84.20
2023-05-07T00:14:42.756Z,84.20
2023-05-07T00:17:12.269Z,84.30
2023-05-07T00:19:40.419Z,84.30
2023-05-07T00:22:09.065Z,84.20
2023-05-07T00:24:39.625Z,84.20
2023-05-07T00:27:07.652Z,84.20
2023-05-07T00:29:35.744Z,84.20
2023-05-07T00:32:03.822Z,84.20
2023-05-07T00:34:33.329Z,84.20
2023-05-07T00:37:01.436Z,84.20
2023-05-07T00:39:29.514Z,84.20
2023-05-07T00:41:58.038Z,84.30
2023-05-07T00:44:35.093Z,84.20
2023-05-07T00:47:04.380Z,84.30
2023-05-07T00:49:38.045Z,84.30
2023-05-07T00:52:06.344Z,84.30
2023-05-07T00:54:34.634Z,84.30
2023-05-07T00:57:03.772Z,84.20
2023-05-07T00:59:32.434Z,84.20
2023-05-07T01:02:00.618Z,84.20
2023-05-07T01:04:28.743Z,84.20
2023-05-07T01:06:58.851Z,84.20
2023-05-07T01:09:27.432Z,84.30
2023-05-07T01:11:55.564Z,84.20
2023-05-07T01:14:23.635Z,84.20
2023-05-07T01:16:52.694Z,84.30
2023-05-07T01:19:20.838Z,84.30
2023-05-07T01:21:49.638Z,84.30
2023-05-07T01:24:19.060Z,84.20
2023-05-07T01:26:47.110Z,84.30
2023-05-07T01:29:15.191Z,84.30
2023-05-07T01:31:43.366Z,84.30
2023-05-07T01:34:25.408Z,84.40
2023-05-07T01:36:53.461Z,84.50
2023-05-07T01:39:23.682Z,84.40
2023-05-07T01:41:51.774Z,84.50
2023-05-07T01:44:20.321Z,84.50
2023-05-07T01:46:48.509Z,84.50
2023-05-07T01:49:17.152Z,84.60
2023-05-07T01:51:45.399Z,84.60
2023-05-07T01:54:13.672Z,84.70
2023-05-07T01:56:43.565Z,84.70
2023-05-07T01:59:11.737Z,84.70
2023-05-07T02:01:40.194Z,84.80
2023-05-07T02:04:08.498Z,84.80
2023-05-07T02:06:47.638Z,84.70
2023-05-07T02:09:16.149Z,84.60
2023-05-07T02:11:48.265Z,84.70
2023-05-07T02:14:16.471Z,84.70
2023-05-07T02:16:44.681Z,84.70
2023-05-07T02:19:12.806Z,84.80
2023-05-07T02:21:40.853Z,84.90
2023-05-07T02:24:09.099Z,84.90
2023-05-07T02:26:37.333Z,84.80
2023-05-07T02:29:06.813Z,84.80
2023-05-07T02:31:35.552Z,84.80
2023-05-07T02:34:03.681Z,84.70
2023-05-07T02:36:31.790Z,84.80
2023-05-07T02:39:15.361Z,84.90
2023-05-07T02:41:43.507Z,84.90
2023-05-07T02:44:13.130Z,84.90
2023-05-07T02:46:41.242Z,84.90
2023-05-07T02:49:09.295Z,84.80
2023-05-07T02:51:37.360Z,84.80
2023-05-07T02:54:05.674Z,84.80
2023-05-07T02:56:33.732Z,84.80
2023-05-07T02:59:01.823Z,84.90
2023-05-07T03:01:31.464Z,84.90
2023-05-07T03:03:59.630Z,84.90
2023-05-07T03:06:28.159Z,84.90
2023-05-07T03:08:56.278Z,84.90
2023-05-07T03:11:24.392Z,85.00
2023-05-07T03:13:52.437Z,85.00
2023-05-07T03:16:20.975Z,85.00
2023-05-07T03:18:50.550Z,84.90
2023-05-07T03:21:18.664Z,85.00
2023-05-07T03:23:46.760Z,84.90
2023-05-07T03:26:14.849Z,85.00
2023-05-07T03:28:42.945Z,85.00
2023-05-07T03:31:11.112Z,85.00
2023-05-07T03:33:41.029Z,85.00
2023-05-07T03:36:10.812Z,85.10
2023-05-07T03:38:38.852Z,85.00
2023-05-07T03:41:06.962Z,85.00
2023-05-07T03:43:35.076Z,85.00
2023-05-07T03:46:03.180Z,85.00
2023-05-07T03:48:31.294Z,85.00
2023-05-07T03:51:03.828Z,85.10
2023-05-07T03:53:33.309Z,85.10
2023-05-07T03:56:01.419Z,85.10
2023-05-07T03:58:29.549Z,84.90
2023-05-07T04:00:58.018Z,84.90
2023-05-07T04:03:26.283Z,85.10
2023-05-07T04:05:54.438Z,85.00
2023-05-07T04:08:22.498Z,85.00
2023-05-07T04:10:56.349Z,85.10
2023-05-07T04:13:24.581Z,84.90
2023-05-07T04:15:52.912Z,84.90
2023-05-07T04:18:23.710Z,84.70
2023-05-07T04:20:51.788Z,84.90
2023-05-07T04:23:19.865Z,84.80
2023-05-07T04:25:47.947Z,84.90
2023-05-07T04:28:17.872Z,84.90
2023-05-07T04:30:46.121Z,84.80
2023-05-07T04:33:14.297Z,84.70
2023-05-07T04:35:42.493Z,84.90
2023-05-07T04:38:10.580Z,84.90
2023-05-07T04:40:38.652Z,84.90
2023-05-07T04:43:06.798Z,84.90
2023-05-07T04:45:36.386Z,84.80
2023-05-07T04:48:04.777Z,84.70
2023-05-07T04:50:32.938Z,84.90
2023-05-07T04:53:01.084Z,84.80
2023-05-07T04:55:29.280Z,84.80
2023-05-07T04:57:57.412Z,84.80
2023-05-07T05:00:26.274Z,85.00
2023-05-07T05:02:55.818Z,84.80
2023-05-07T05:05:24.012Z,84.80
2023-05-07T05:07:52.701Z,84.90
2023-05-07T05:10:22.445Z,85.00
2023-05-07T05:12:52.060Z,84.90
2023-05-07T05:15:20.205Z,84.70
2023-05-07T05:17:48.281Z,84.70
2023-05-07T05:20:17.879Z,84.60
2023-05-07T05:22:46.007Z,84.60
2023-05-07T05:25:14.104Z,84.70
2023-05-07T05:27:42.183Z,84.80
2023-05-07T05:30:11.136Z,84.80
2023-05-07T05:32:39.331Z,84.80
2023-05-07T05:35:08.000Z,84.80
2023-05-07T05:37:37.594Z,84.70
2023-05-07T05:40:12.172Z,84.50
2023-05-07T05:42:40.833Z,84.50
2023-05-07T05:45:10.559Z,84.50
2023-05-07T05:47:39.817Z,84.30
2023-05-07T05:50:09.127Z,84.40
2023-05-07T05:52:38.727Z,84.30
2023-05-07T05:55:07.860Z,84.40
2023-05-07T05:57:36.482Z,84.30
2023-05-07T06:00:05.328Z,84.30
2023-05-07T06:02:33.568Z,84.20
2023-05-07T06:05:01.851Z,84.20
2023-05-07T06:07:29.986Z,84.20
2023-05-07T06:09:59.425Z,84.10
2023-05-07T06:12:27.651Z,84.10
2023-05-07T06:14:55.863Z,84.00
2023-05-07T06:17:23.974Z,84.20
2023-05-07T06:19:52.083Z,84.10
2023-05-07T06:22:20.153Z,83.80
2023-05-07T06:24:48.250Z,83.60
2023-05-07T06:27:23.485Z,83.50
2023-05-07T06:29:51.556Z,83.20
2023-05-07T06:32:20.186Z,83.10
2023-05-07T06:34:48.281Z,83.10
2023-05-07T06:37:16.417Z,83.00
2023-05-07T06:39:44.540Z,83.00
2023-05-07T06:42:12.606Z,83.00
2023-05-07T06:44:42.050Z,83.00
2023-05-07T06:47:10.125Z,83.00
2023-05-07T06:49:38.185Z,82.90
2023-05-07T06:52:06.518Z,83.00
2023-05-07T06:54:34.634Z,82.90
2023-05-07T06:57:02.868Z,83.00
2023-05-07T06:59:30.936Z,83.00
2023-05-07T07:02:00.586Z,82.90
2023-05-07T07:04:29.413Z,82.90
2023-05-07T07:06:58.269Z,82.70
2023-05-07T07:09:26.470Z,82.60
2023-05-07T07:11:54.580Z,82.50
2023-05-07T07:14:22.683Z,82.50
2023-05-07T07:16:51.035Z,82.40
2023-05-07T07:19:21.311Z,82.50
2023-05-07T07:21:49.384Z,82.50
2023-05-07T07:24:20.281Z,82.50
2023-05-07T07:26:48.499Z,82.40
2023-05-07T07:29:16.514Z,82.50
2023-05-07T07:31:44.623Z,82.40
2023-05-07T07:34:12.694Z,82.30
2023-05-07T07:36:46.368Z,82.30
2023-05-07T07:39:15.172Z,82.20
2023-05-07T07:41:43.339Z,82.30
2023-05-07T07:44:16.009Z,82.30
2023-05-07T07:46:44.565Z,82.20
2023-05-07T07:49:12.676Z,82.30
2023-05-07T07:51:42.088Z,82.20
2023-05-07T07:54:10.178Z,82.30
2023-05-07T07:56:38.231Z,82.20
2023-05-07T07:59:06.313Z,82.20
2023-05-07T08:01:34.420Z,82.20
2023-05-07T08:04:04.258Z,82.10
2023-05-07T08:06:32.562Z,82.10
2023-05-07T08:09:02.012Z,82.10
2023-05-07T08:11:30.084Z,82.10
2023-05-07T08:13:58.386Z,82.10
2023-05-07T08:16:26.548Z,82.10
2023-05-07T08:18:54.685Z,82.10
2023-05-07T08:21:22.757Z,82.10
2023-05-07T08:23:50.871Z,82.00
2023-05-07T08:26:20.369Z,82.00
2023-05-07T08:28:48.447Z,82.10
2023-05-07T08:31:16.552Z,82.00
2023-05-07T08:33:44.615Z,82.00
2023-05-07T08:36:12.659Z,81.90
2023-05-07T08:38:41.714Z,82.00
2023-05-07T08:41:10.729Z,82.00
2023-05-07T08:43:40.530Z,81.90
2023-05-07T08:46:10.211Z,82.00
2023-05-07T08:48:38.665Z,81.90
2023-05-07T08:51:06.797Z,82.00
2023-05-07T08:53:35.232Z,81.90
2023-05-07T08:56:03.344Z,82.00
2023-05-07T08:58:31.436Z,81.90
2023-05-07T09:01:00.982Z,82.00
2023-05-07T09:03:29.082Z,82.00
2023-05-07T09:05:57.122Z,81.90
2023-05-07T09:08:26.972Z,82.00
2023-05-07T09:10:55.570Z,81.90
2023-05-07T09:13:26.411Z,82.00
2023-05-07T09:15:54.526Z,82.00
2023-05-07T09:18:25.700Z,82.00
2023-05-07T09:20:53.761Z,81.90
2023-05-07T09:23:22.478Z,82.00
2023-05-07T09:25:50.524Z,81.90
2023-05-07T09:28:18.540Z,82.00
2023-05-07T09:30:49.333Z,81.90
2023-05-07T09:33:18.133Z,82.00
2023-05-07T09:35:47.645Z,82.00
2023-05-07T09:38:15.765Z,82.00
2023-05-07T09:40:43.888Z,82.00
2023-05-07T09:43:12.778Z,82.10
2023-05-07T09:45:41.000Z,82.10
2023-05-07T09:48:09.168Z,82.10
2023-05-07T09:50:38.801Z,82.10
2023-05-07T09:53:08.235Z,82.00
2023-05-07T09:55:36.347Z,82.00
2023-05-07T09:58:05.755Z,82.10
2023-05-07T10:00:33.930Z,82.10
2023-05-07T10:03:02.230Z,82.20
2023-05-07T10:05:30.379Z,82.10
2023-05-07T10:07:58.439Z,82.20
2023-05-07T10:10:28.441Z,82.20
2023-05-07T10:12:56.582Z,82.20
2023-05-07T10:15:25.724Z,82.20
2023-05-07T10:17:53.967Z,82.20
2023-05-07T10:20:22.200Z,82.20
2023-05-07T10:22:50.765Z,82.30
2023-05-07T10:25:30.781Z,82.30
2023-05-07T10:28:03.589Z,82.40
2023-05-07T10:30:38.095Z,82.30
2023-05-07T10:33:07.806Z,82.30
2023-05-07T10:35:40.095Z,82.30
2023-05-07T10:38:08.164Z,82.30
2023-05-07T10:40:36.269Z,82.30
2023-05-07T10:43:09.319Z,82.40
2023-05-07T10:45:38.255Z,82.40
2023-05-07T10:48:27.204Z,82.30
2023-05-07T10:51:20.929Z,82.30
2023-05-07T10:53:48.986Z,82.40
2023-05-07T10:56:27.971Z,82.40
2023-05-07T10:58:57.937Z,82.40
2023-05-07T11:01:55.205Z,82.40
2023-05-07T11:04:27.652Z,82.40
2023-05-07T11:07:26.164Z,82.40
2023-05-07T11:09:59.515Z,82.40
2023-05-07T11:12:52.902Z,82.40
2023-05-07T11:15:52.443Z,82.40
2023-05-07T11:18:20.642Z,82.40
2023-05-07T11:20:58.705Z,82.40
2023-05-07T11:24:09.280Z,82.40
2023-05-07T11:26:50.403Z,82.40
2023-05-07T11:29:21.509Z,82.40
2023-05-07T11:32:01.317Z,82.40
2023-05-07T11:34:29.445Z,82.50
2023-05-07T11:36:58.517Z,82.50
2023-05-07T11:39:30.777Z,82.50
2023-05-07T11:41:59.088Z,82.50
2023-05-07T11:44:27.239Z,82.50
2023-05-07T11:46:55.358Z,82.60
2023-05-07T11:49:27.707Z,82.60
2023-05-07T11:51:56.120Z,82.60
2023-05-07T11:54:24.177Z,82.60
2023-05-07T11:56:52.296Z,82.60
2023-05-07T11:59:20.873Z,82.70
2023-05-07T12:01:49.821Z,82.70
2023-05-07T12:04:22.750Z,82.70
2023-05-07T12:06:56.764Z,82.70
2023-05-07T12:09:24.896Z,82.70
2023-05-07T12:11:54.187Z,82.80
2023-05-07T12:14:22.246Z,82.80
2023-05-07T12:16:50.461Z,82.80
2023-05-07T12:19:19.190Z,82.80
2023-05-07T12:21:47.323Z,82.80
2023-05-07T12:24:21.978Z,82.80
2023-05-07T12:26:50.589Z,82.80
2023-05-07T12:29:28.328Z,82.80
2023-05-07T12:31:56.433Z,82.90
2023-05-07T12:34:24.916Z,82.80
2023-05-07T12:36:52.981Z,82.90
2023-05-07T12:39:22.462Z,82.90
2023-05-07T12:41:56.582Z,82.90
2023-05-07T12:44:31.114Z,82.90
2023-05-07T12:47:07.221Z,83.00
2023-05-07T12:49:38.676Z,83.00
2023-05-07T12:52:06.863Z,83.00
2023-05-07T12:54:39.029Z,83.00
2023-05-07T12:57:07.730Z,83.00
2023-05-07T12:59:36.430Z,83.00
2023-05-07T13:02:04.634Z,83.00
2023-05-07T13:04:33.323Z,83.00
2023-05-07T13:07:01.461Z,83.00
2023-05-07T13:09:30.103Z,83.00
2023-05-07T13:12:01.092Z,83.00
2023-05-07T13:14:29.110Z,83.00
2023-05-07T13:16:57.219Z,83.00
2023-05-07T13:19:29.753Z,83.00
2023-05-07T13:22:02.314Z,83.10
2023-05-07T13:24:30.389Z,83.10
2023-05-07T13:26:59.864Z,83.10
2023-05-07T13:29:30.990Z,83.10
2023-05-07T13:31:59.241Z,83.10
2023-05-07T13:34:27.457Z,83.00
2023-05-07T13:36:56.249Z,83.00
2023-05-07T13:39:24.444Z,83.00
2023-05-07T13:41:52.555Z,83.00
2023-05-07T13:44:22.099Z,83.00
2023-05-07T13:46:50.230Z,83.10
2023-05-07T13:49:18.388Z,83.10
2023-05-07T13:51:48.984Z,83.00
2023-05-07T13:54:17.113Z,83.10
2023-05-07T13:56:48.305Z,83.10
2023-05-07T13:59:16.406Z,83.10
2023-05-07T14:01:45.889Z,83.10
2023-05-07T14:04:14.108Z,83.10
2023-05-07T14:06:42.187Z,83.20
2023-05-07T14:09:13.252Z,83.10
2023-05-07T14:11:41.721Z,83.10
2023-05-07T14:14:11.645Z,83.10
2023-05-07T14:16:40.113Z,83.20
2023-05-07T14:19:09.605Z,83.20
2023-05-07T14:21:37.675Z,83.20
2023-05-07T14:24:06.428Z,83.20
2023-05-07T14:26:34.962Z,83.20
2023-05-07T14:29:03.062Z,83.20
2023-05-07T14:31:31.283Z,83.30
2023-05-07T14:34:00.282Z,83.40
2023-05-07T14:36:31.307Z,83.40
2023-05-07T14:39:00.396Z,83.40
2023-05-07T14:41:28.530Z,83.50
2023-05-07T14:43:56.673Z,83.50
2023-05-07T14:46:33.315Z,83.40
2023-05-07T14:49:01.598Z,83.40
2023-05-07T14:51:31.697Z,83.40
2023-05-07T14:53:59.838Z,83.40
2023-05-07T14:56:28.134Z,83.40
2023-05-07T14:58:56.360Z,83.40
2023-05-07T15:01:24.517Z,83.40
2023-05-07T15:04:02.020Z,83.50
2023-05-07T15:06:32.093Z,83.60
2023-05-07T15:09:00.300Z,83.70
2023-05-07T15:11:29.029Z,83.70
2023-05-07T15:13:57.470Z,83.80
2023-05-07T15:16:25.762Z,83.90
2023-05-07T15:18:53.876Z,83.90
2023-05-07T15:21:22.097Z,84.00
2023-05-07T15:23:51.819Z,83.90
2023-05-07T15:26:19.967Z,84.10
2023-05-07T15:28:48.070Z,84.60
2023-05-07T15:31:17.565Z,84.30
2023-05-07T15:33:45.848Z,84.80
2023-05-07T15:36:13.964Z,84.90
2023-05-07T15:38:42.372Z,84.80
2023-05-07T15:41:11.891Z,84.90
2023-05-07T15:43:45.517Z,84.80
2023-05-07T15:46:13.812Z,84.80
2023-05-07T15:48:41.902Z,84.80
2023-05-07T15:51:10.680Z,84.70
2023-05-07T15:53:38.799Z,84.60
2023-05-07T15:56:07.254Z,84.60
2023-05-07T15:58:37.302Z,84.50
2023-05-07T16:01:05.712Z,84.60
2023-05-07T16:03:34.086Z,84.50
2023-05-07T16:06:02.566Z,84.50
2023-05-07T16:08:30.772Z,84.50
2023-05-07T16:10:58.902Z,84.50
2023-05-07T16:13:27.118Z,84.50
2023-05-07T16:15:59.063Z,84.50
2023-05-07T16:18:27.212Z,84.50
2023-05-07T16:20:55.472Z,84.50
2023-05-07T16:23:23.627Z,84.50
2023-05-07T16:25:51.897Z,84.50
2023-05-07T16:28:20.007Z,84.50
2023-05-07T16:30:50.934Z,84.30
2023-05-07T16:33:23.271Z,84.30
2023-05-07T16:35:54.954Z,84.30
2023-05-07T16:38:23.011Z,84.30
2023-05-07T16:40:51.122Z,84.30
2023-05-07T16:43:19.178Z,84.30
2023-05-07T16:45:48.407Z,84.50
2023-05-07T16:48:29.361Z,84.50
2023-05-07T16:50:59.381Z,84.50
2023-05-07T16:53:28.145Z,84.30
2023-05-07T16:55:56.669Z,84.30
2023-05-07T16:58:28.593Z,84.30
2023-05-07T17:00:56.716Z,84.30
2023-05-07T17:03:27.137Z,84.30
2023-05-07T17:05:55.337Z,84.30
2023-05-07T17:08:23.586Z,84.30
2023-05-07T17:10:51.766Z,84.30
2023-05-07T17:13:19.911Z,84.30
2023-05-07T17:15:48.648Z,84.30
2023-05-07T17:18:16.729Z,84.30
2023-05-07T17:20:46.202Z,84.30
2023-05-07T17:23:15.405Z,84.30
2023-05-07T17:25:45.600Z,84.30
2023-05-07T17:28:13.894Z,84.30
2023-05-07T17:30:42.014Z,84.30
2023-05-07T17:33:20.872Z,84.30
2023-05-07T17:35:51.723Z,84.30
2023-05-07T17:41:25.837Z,84.30
2023-05-07T17:43:54.000Z,84.30
2023-05-07T17:46:22.231Z,84.30
2023-05-07T17:48:50.488Z,84.30
2023-05-07T17:51:20.341Z,84.30
2023-05-07T17:53:48.519Z,84.30
2023-05-07T17:56:20.227Z,84.30
2023-05-07T17:58:59.054Z,84.30
2023-05-07T18:01:33.391Z,84.30
2023-05-07T18:04:01.690Z,84.30
2023-05-07T18:06:32.288Z,84.30
2023-05-07T18:09:00.529Z,84.30
2023-05-07T18:11:29.700Z,84.30
2023-05-07T18:14:16.325Z,84.30
2023-05-07T18:16:44.516Z,84.50
2023-05-07T18:19:12.825Z,84.50
2023-05-07T18:22:43.472Z,84.30
2023-05-07T18:25:20.188Z,84.50
2023-05-07T18:30:37.771Z,84.50
2023-05-07T18:33:07.080Z,84.50
2023-05-07T18:35:35.245Z,84.50
2023-05-07T18:38:03.338Z,84.50
2023-05-07T18:40:32.886Z,84.50
2023-05-07T18:43:06.629Z,84.50
2023-05-07T18:45:54.462Z,84.30
2023-05-07T18:48:22.567Z,84.50
2023-05-07T18:50:50.668Z,84.50
2023-05-07T18:53:18.741Z,84.50
2023-05-07T18:55:52.158Z,84.30
2023-05-07T18:58:24.599Z,84.50
2023-05-07T19:00:53.096Z,84.50
2023-05-07T19:03:21.267Z,84.50
2023-05-07T19:05:49.319Z,84.50
2023-05-07T19:08:17.549Z,84.50
2023-05-07T19:10:46.007Z,84.50
2023-05-07T19:13:15.541Z,84.30
2023-05-07T19:15:46.718Z,84.50
2023-05-07T19:18:14.861Z,84.50
2023-05-07T19:20:59.191Z,84.30
2023-05-07T19:23:27.329Z,84.50
2023-05-07T19:25:55.426Z,84.50
2023-05-07T19:28:26.313Z,84.50
2023-05-07T19:30:54.418Z,84.30
2023-05-07T19:33:23.813Z,84.30
2023-05-07T19:35:54.064Z,84.30
2023-05-07T19:38:22.140Z,84.30
2023-05-07T19:40:50.277Z,84.30
2023-05-07T19:43:18.357Z,84.30
2023-05-07T19:45:48.240Z,84.30
2023-05-07T19:48:16.368Z,84.30
2023-05-07T19:50:44.458Z,84.30
2023-05-07T19:53:26.383Z,84.30
2023-05-07T19:56:03.248Z,84.30
2023-05-07T19:58:31.318Z,84.10
2023-05-07T20:01:01.590Z,84.00
2023-05-07T20:03:29.875Z,84.00
2023-05-07T20:05:58.062Z,84.00
2023-05-07T20:08:26.179Z,84.10
2023-05-07T20:10:54.292Z,84.00
2023-05-07T20:13:22.664Z,84.10
2023-05-07T20:15:51.028Z,83.90
2023-05-07T20:18:20.552Z,83.80
2023-05-07T20:20:52.671Z,83.60
2023-05-07T20:23:23.871Z,83.60
2023-05-07T20:25:52.019Z,83.50
2023-05-07T20:28:23.008Z,83.40
2023-05-07T20:30:51.127Z,83.40
2023-05-07T20:33:20.561Z,83.20
2023-05-07T20:35:49.096Z,83.20
2023-05-07T20:38:17.179Z,83.10
2023-05-07T20:40:45.430Z,83.10
2023-05-07T20:43:13.505Z,83.00
2023-05-07T20:45:41.741Z,83.00
2023-05-07T20:48:09.914Z,83.00
2023-05-07T20:50:39.400Z,83.00
2023-05-07T20:53:07.439Z,83.00
2023-05-07T20:55:35.500Z,83.00
2023-05-07T20:58:03.896Z,83.00
2023-05-07T21:00:32.006Z,83.10
2023-05-07T21:03:00.168Z,83.10
2023-05-07T21:05:28.807Z,83.10
2023-05-07T21:07:58.225Z,83.10
2023-05-07T21:10:26.370Z,83.10
2023-05-07T21:12:54.430Z,83.10
2023-05-07T21:15:25.777Z,83.20
2023-05-07T21:17:54.021Z,83.10
2023-05-07T21:20:22.210Z,83.10
2023-05-07T21:22:50.290Z,83.20
2023-05-07T21:25:19.902Z,83.10
2023-05-07T21:27:47.959Z,83.10
2023-05-07T21:30:16.473Z,83.10
2023-05-07T21:32:44.516Z,83.10
2023-05-07T21:35:12.979Z,83.20
2023-05-07T21:37:41.095Z,83.20
2023-05-07T21:40:10.138Z,83.30
2023-05-07T21:42:39.654Z,83.30
2023-05-07T21:45:08.286Z,83.20
2023-05-07T21:47:36.472Z,83.30
2023-05-07T21:50:05.212Z,83.30
2023-05-07T21:52:33.334Z,83.40
2023-05-07T21:55:01.428Z,83.40
2023-05-07T21:57:29.622Z,83.40
2023-05-07T21:59:59.112Z,83.50
2023-05-07T22:02:27.332Z,83.40
2023-05-07T22:04:55.422Z,83.50
2023-05-07T22:07:23.491Z,83.50
2023-05-07T22:09:51.559Z,83.50
2023-05-07T22:12:19.615Z,83.50
2023-05-07T22:14:48.108Z,83.50
2023-05-07T22:17:17.572Z,83.60
2023-05-07T22:19:45.613Z,83.60
2023-05-07T22:22:13.742Z,83.60
2023-05-07T22:24:41.825Z,83.60
2023-05-07T22:27:09.909Z,83.60
2023-05-07T22:29:37.983Z,83.60
2023-05-07T22:32:06.585Z,83.60
2023-05-07T22:34:36.050Z,83.60
2023-05-07T22:37:04.136Z,83.70
2023-05-07T22:39:46.831Z,83.70
2023-05-07T22:42:14.937Z,83.80
2023-05-07T22:44:43.029Z,83.80
2023-05-07T22:47:11.355Z,83.80
2023-05-07T22:49:40.814Z,83.80
2023-05-07T22:52:08.921Z,83.80
2023-05-07T22:54:37.001Z,83.80
2023-05-07T22:57:05.188Z,83.80
2023-05-07T22:59:33.312Z,83.80
2023-05-07T23:02:01.441Z,83.80
2023-05-07T23:04:29.503Z,83.90
2023-05-07T23:06:59.005Z,83.90
2023-05-07T23:09:27.126Z,83.90
2023-05-07T23:11:55.282Z,83.90
2023-05-07T23:14:24.495Z,83.90
2023-05-07T23:16:53.278Z,83.90
2023-05-07T23:19:21.535Z,83.90
2023-05-07T23:21:50.007Z,83.90
2023-05-07T23:24:19.517Z,84.00
2023-05-07T23:26:47.564Z,83.90
2023-05-07T23:29:23.292Z,83.90
2023-05-07T23:31:51.428Z,84.00
2023-05-07T23:34:24.062Z,84.00
2023-05-07T23:36:52.553Z,84.00
2023-05-07T23:39:22.069Z,84.10
2023-05-07T23:41:50.168Z,84.10
2023-05-07T23:44:18.332Z,84.10
2023-05-07T23:46:46.541Z,84.30
2023-05-07T23:49:14.779Z,84.30
2023-05-07T23:51:42.875Z,84.10
2023-05-07T23:54:10.894Z,84.30
2023-05-07T23:56:40.320Z,84.10
2023-05-07T23:59:08.595Z,84.30
